createdAt,value
2018-04-24T00:00:47.015Z,94753.85
2018-04-24T00:03:15.511Z,94746.31
2018-04-24T00:05:43.975Z,94755.08
2018-04-24T00:08:13.115Z,94748.81
2018-04-24T00:10:41.628Z,94752.93
2018-04-24T00:13:10.154Z,94749.77
2018-04-24T00:15:38.588Z,94753.55
2018-04-24T00:18:07.077Z,94754.38
2018-04-24T00:20:35.493Z,94749.17
2018-04-24T00:23:03.919Z,94758.52
2018-04-24T00:25:32.361Z,94756.29
2018-04-24T00:28:00.819Z,94756.41
2018-04-24T00:30:29.267Z,94756.59
2018-04-24T00:32:57.724Z,94754.77
2018-04-24T00:35:26.203Z,94756.32
2018-04-24T00:37:54.606Z,94758.72
2018-04-24T00:40:23.043Z,94766.44
2018-04-24T00:42:51.443Z,94767.05
2018-04-24T00:45:19.910Z,94769.50
2018-04-24T00:47:48.381Z,94771.44
2018-04-24T00:50:16.792Z,94769.46
2018-04-24T00:52:45.240Z,94776.55
2018-04-24T00:55:13.615Z,94776.40
2018-04-24T00:57:42.083Z,94775.84
2018-04-24T01:00:10.512Z,94777.95
2018-04-24T01:02:39.042Z,94734.52
2018-04-24T01:05:07.467Z,94781.80
2018-04-24T01:07:35.873Z,94769.42
2018-04-24T01:10:04.422Z,94775.76
2018-04-24T01:12:32.855Z,94779.30
2018-04-24T01:15:01.318Z,94779.42
2018-04-24T01:17:29.794Z,94785.73
2018-04-24T01:19:58.275Z,94786.63
2018-04-24T01:22:26.711Z,94766.91
2018-04-24T01:24:55.147Z,94779.25
2018-04-24T01:27:23.592Z,94786.38
2018-04-24T01:29:52.023Z,94784.69
2018-04-24T01:32:20.459Z,94787.83
2018-04-24T01:34:48.849Z,94789.28
2018-04-24T01:37:17.252Z,94790.16
2018-04-24T01:39:45.648Z,94793.78
2018-04-24T01:42:14.108Z,94792.09
2018-04-24T01:44:42.547Z,94788.36
2018-04-24T01:47:10.972Z,94796.09
2018-04-24T01:49:39.381Z,94789.95
2018-04-24T01:52:07.802Z,94795.70
2018-04-24T01:54:36.259Z,94794.75
2018-04-24T01:57:04.758Z,94818.05
2018-04-24T01:59:33.190Z,94810.20
2018-04-24T02:02:01.748Z,94804.66
2018-04-24T02:04:30.227Z,94798.00
2018-04-24T02:06:58.639Z,94817.23
2018-04-24T02:09:27.133Z,94814.73
2018-04-24T02:11:55.657Z,94811.09
2018-04-24T02:14:24.139Z,94813.75
2018-04-24T02:16:52.709Z,94814.81
2018-04-24T02:19:21.132Z,94814.82
2018-04-24T02:21:49.625Z,94819.70
2018-04-24T02:24:18.311Z,94794.25
2018-04-24T02:26:46.750Z,94796.62
2018-04-24T02:29:15.231Z,94812.38
2018-04-24T02:31:43.645Z,94810.83
2018-04-24T02:34:12.036Z,94807.94
2018-04-24T02:36:40.474Z,94811.41
2018-04-24T02:39:08.917Z,94816.92
2018-04-24T02:41:37.408Z,94810.54
2018-04-24T02:44:05.842Z,94813.41
2018-04-24T02:46:34.255Z,94814.50
2018-04-24T02:49:02.720Z,94810.18
2018-04-24T02:51:31.147Z,94809.73
2018-04-24T02:53:59.540Z,94809.63
2018-04-24T02:56:28.007Z,94808.44
2018-04-24T02:58:56.404Z,94809.68
2018-04-24T03:01:24.865Z,94803.38
2018-04-24T03:03:53.281Z,94787.20
2018-04-24T03:06:21.712Z,94812.88
2018-04-24T03:08:50.151Z,94812.65
2018-04-24T03:11:18.755Z,94811.78
2018-04-24T03:13:47.164Z,94817.73
2018-04-24T03:16:15.616Z,94809.60
2018-04-24T03:18:44.117Z,94810.91
2018-04-24T03:21:12.637Z,94810.92
2018-04-24T03:23:41.486Z,94815.69
2018-04-24T03:26:09.909Z,94811.45
2018-04-24T03:28:38.295Z,94809.73
2018-04-24T03:31:06.745Z,94816.68
2018-04-24T03:33:35.178Z,94822.06
2018-04-24T03:36:03.571Z,94819.00
2018-04-24T03:38:31.999Z,94825.06
2018-04-24T03:41:00.444Z,94823.71
2018-04-24T03:43:28.980Z,94824.27
2018-04-24T03:45:57.387Z,94827.47
2018-04-24T03:48:25.806Z,94822.23
2018-04-24T03:50:54.191Z,94825.47
2018-04-24T03:53:22.638Z,94810.87
2018-04-24T03:55:51.145Z,94833.41
2018-04-24T03:58:19.657Z,94833.67
2018-04-24T04:00:48.061Z,94841.86
2018-04-24T04:03:16.566Z,94837.66
2018-04-24T04:05:45.040Z,94847.91
2018-04-24T04:08:13.517Z,94852.34
2018-04-24T04:10:41.931Z,94842.67
2018-04-24T04:13:10.391Z,94847.29
2018-04-24T04:15:38.827Z,94852.53
2018-04-24T04:18:18.988Z,94842.73
2018-04-24T04:20:59.466Z,94847.66
2018-04-24T04:23:39.822Z,94851.91
2018-04-24T04:26:08.255Z,94873.11
2018-04-24T04:28:36.747Z,94854.52
2018-04-24T04:31:05.202Z,94839.55
2018-04-24T04:33:34.638Z,94860.16
2018-04-24T04:36:03.119Z,94866.66
2018-04-24T04:38:31.519Z,94873.20
2018-04-24T04:41:00.054Z,94865.18
2018-04-24T04:43:28.535Z,94868.40
2018-04-24T04:45:56.936Z,94868.98
2018-04-24T04:48:25.538Z,94866.31
2018-04-24T04:50:54.084Z,94870.72
2018-04-24T04:53:22.539Z,94869.99
2018-04-24T04:55:51.101Z,94869.88
2018-04-24T04:58:19.561Z,94877.48
2018-04-24T05:00:47.951Z,94875.17
2018-04-24T05:03:16.408Z,94832.60
2018-04-24T05:05:44.858Z,94876.27
2018-04-24T05:08:13.316Z,94880.31
2018-04-24T05:10:41.800Z,94862.64
2018-04-24T05:13:10.227Z,94875.30
2018-04-24T05:15:38.635Z,94883.52
2018-04-24T05:18:07.083Z,94880.90
2018-04-24T05:20:35.546Z,94883.92
2018-04-24T05:23:04.033Z,94877.30
2018-04-24T05:25:32.504Z,94877.63
2018-04-24T05:28:00.909Z,94881.78
2018-04-24T05:30:29.376Z,94883.51
2018-04-24T05:32:57.883Z,94880.45
2018-04-24T05:35:26.418Z,94886.37
2018-04-24T05:37:54.907Z,94888.02
2018-04-24T05:40:23.327Z,94889.16
2018-04-24T05:42:51.739Z,94889.05
2018-04-24T05:45:20.242Z,94889.67
2018-04-24T05:47:48.650Z,94890.97
2018-04-24T05:50:17.076Z,94889.19
2018-04-24T05:52:45.479Z,94891.53
2018-04-24T05:55:14.083Z,94893.05
2018-04-24T05:57:42.483Z,94893.55
2018-04-24T06:00:11.127Z,94895.76
2018-04-24T06:02:39.553Z,94895.62
2018-04-24T06:05:08.022Z,94892.73
2018-04-24T06:07:36.628Z,94896.86
2018-04-24T06:10:05.072Z,94891.54
2018-04-24T06:12:33.571Z,94893.34
2018-04-24T06:15:02.064Z,94899.40
2018-04-24T06:17:30.501Z,94899.02
2018-04-24T06:19:58.912Z,94899.33
2018-04-24T06:22:27.348Z,94895.07
2018-04-24T06:24:55.782Z,94879.64
2018-04-24T06:27:24.302Z,94898.36
2018-04-24T06:29:52.774Z,94894.75
2018-04-24T06:32:21.281Z,94881.78
2018-04-24T06:34:49.739Z,94905.84
2018-04-24T06:37:18.132Z,94909.26
2018-04-24T06:39:46.595Z,94908.03
2018-04-24T06:42:15.143Z,94902.41
2018-04-24T06:44:43.507Z,94910.48
2018-04-24T06:47:11.919Z,94907.59
2018-04-24T06:49:40.343Z,94903.84
2018-04-24T06:52:08.749Z,94907.95
2018-04-24T06:54:37.209Z,94909.49
2018-04-24T06:57:05.624Z,94915.34
2018-04-24T06:59:34.185Z,94910.89
2018-04-24T07:02:02.623Z,94915.60
2018-04-24T07:04:31.083Z,94912.92
2018-04-24T07:06:59.544Z,94913.02
2018-04-24T07:09:27.964Z,94905.51
2018-04-24T07:11:56.457Z,94905.20
2018-04-24T07:14:25.020Z,94905.12
2018-04-24T07:16:53.515Z,94910.45
2018-04-24T07:19:22.056Z,94912.16
2018-04-24T07:21:50.513Z,94911.55
2018-04-24T07:24:18.963Z,94893.78
2018-04-24T07:26:47.385Z,94914.84
2018-04-24T07:29:15.791Z,94919.77
2018-04-24T07:31:44.268Z,94919.86
2018-04-24T07:34:12.680Z,94922.98
2018-04-24T07:36:41.265Z,94921.34
2018-04-24T07:39:09.756Z,94923.77
2018-04-24T07:41:38.244Z,94917.91
2018-04-24T07:44:06.689Z,94915.89
2018-04-24T07:46:35.214Z,94915.03
2018-04-24T07:49:03.631Z,94912.03
2018-04-24T07:51:32.154Z,94923.67
2018-04-24T07:54:00.591Z,94907.53
2018-04-24T07:56:28.995Z,94884.94
2018-04-24T07:58:57.450Z,94906.27
2018-04-24T08:01:25.902Z,94904.84
2018-04-24T08:03:54.705Z,94870.02
2018-04-24T08:06:23.161Z,94907.56
2018-04-24T08:08:51.603Z,94900.11
2018-04-24T08:11:20.076Z,94883.16
2018-04-24T08:13:48.549Z,94896.46
2018-04-24T08:16:17.006Z,94896.12
2018-04-24T08:18:45.444Z,94890.89
2018-04-24T08:21:13.895Z,94895.56
2018-04-24T08:23:42.320Z,94887.67
2018-04-24T08:26:10.736Z,94896.97
2018-04-24T08:28:39.221Z,94872.34
2018-04-24T08:31:07.627Z,94885.33
2018-04-24T08:33:36.193Z,94871.45
2018-04-24T08:36:04.601Z,94887.17
2018-04-24T08:38:33.068Z,94886.69
2018-04-24T08:41:01.493Z,94888.11
2018-04-24T08:43:30.056Z,94886.30
2018-04-24T08:45:58.502Z,94885.48
2018-04-24T08:48:26.918Z,94887.84
2018-04-24T08:50:55.384Z,94884.72
2018-04-24T08:53:23.812Z,94876.39
2018-04-24T08:55:52.290Z,94880.39
2018-04-24T08:58:20.852Z,94881.82
2018-04-24T09:00:49.335Z,94882.80
2018-04-24T09:03:17.844Z,94877.06
2018-04-24T09:05:46.353Z,94876.45
2018-04-24T09:08:14.811Z,94879.10
2018-04-24T09:10:43.232Z,94870.78
2018-04-24T09:13:11.684Z,94866.75
2018-04-24T09:15:40.101Z,94866.76
2018-04-24T09:18:08.538Z,94850.05
2018-04-24T09:20:36.952Z,94863.46
2018-04-24T09:23:05.360Z,94860.41
2018-04-24T09:25:33.857Z,94857.13
2018-04-24T09:28:02.285Z,94854.54
2018-04-24T09:30:30.707Z,94850.48
2018-04-24T09:32:59.107Z,94842.56
2018-04-24T09:35:28.305Z,94847.10
2018-04-24T09:37:56.745Z,94840.21
2018-04-24T09:40:25.208Z,94838.14
2018-04-24T09:42:53.622Z,94839.34
2018-04-24T09:45:22.093Z,94836.94
2018-04-24T09:47:50.503Z,94822.86
2018-04-24T09:50:18.908Z,94833.58
2018-04-24T09:52:47.339Z,94833.17
2018-04-24T09:55:15.763Z,94827.92
2018-04-24T09:57:44.692Z,94825.72
2018-04-24T10:00:13.172Z,94824.59
2018-04-24T10:02:41.580Z,94823.63
2018-04-24T10:05:10.016Z,94815.46
2018-04-24T10:07:38.478Z,94816.21
2018-04-24T10:10:06.947Z,94814.27
2018-04-24T10:12:35.391Z,94811.70
2018-04-24T10:15:03.792Z,94806.58
2018-04-24T10:17:32.265Z,94803.72
2018-04-24T10:20:00.704Z,94788.34
2018-04-24T10:22:29.099Z,94798.06
2018-04-24T10:24:57.537Z,94795.59
2018-04-24T10:27:25.948Z,94781.60
2018-04-24T10:29:54.391Z,94792.47
2018-04-24T10:32:22.836Z,94789.78
2018-04-24T10:34:51.257Z,94787.69
2018-04-24T10:37:19.701Z,94777.38
2018-04-24T10:39:48.119Z,94774.43
2018-04-24T10:42:16.591Z,94773.37
2018-04-24T10:44:45.115Z,94770.73
2018-04-24T10:47:13.511Z,94766.40
2018-04-24T10:49:42.012Z,94764.45
2018-04-24T10:52:10.428Z,94757.66
2018-04-24T10:54:38.847Z,94751.72
2018-04-24T10:57:07.279Z,94744.34
2018-04-24T10:59:35.705Z,94749.59
2018-04-24T11:02:04.182Z,94745.23
2018-04-24T11:04:32.586Z,94741.86
2018-04-24T11:07:01.044Z,94745.73
2018-04-24T11:09:29.555Z,94732.73
2018-04-24T11:11:58.005Z,94736.58
2018-04-24T11:14:26.386Z,94729.06
2018-04-24T11:16:55.203Z,94730.36
2018-04-24T11:19:23.597Z,94724.34
2018-04-24T11:21:51.997Z,94719.05
2018-04-24T11:24:20.455Z,94722.50
2018-04-24T11:26:48.875Z,94711.84
2018-04-24T11:29:17.354Z,94710.47
2018-04-24T11:31:46.218Z,94713.17
2018-04-24T11:34:14.765Z,94713.48
2018-04-24T11:36:43.294Z,94708.38
2018-04-24T11:39:12.057Z,94700.91
2018-04-24T11:41:40.553Z,94706.30
2018-04-24T11:44:08.911Z,94696.39
2018-04-24T11:46:37.803Z,94696.27
2018-04-24T11:49:06.223Z,94695.88
2018-04-24T11:51:34.635Z,94686.91
2018-04-24T11:54:03.119Z,94670.22
2018-04-24T11:56:31.567Z,94680.87
2018-04-24T11:58:59.965Z,94689.30
2018-04-24T12:01:28.492Z,94679.90
2018-04-24T12:03:56.918Z,94685.14
2018-04-24T12:06:25.311Z,94677.64
2018-04-24T12:08:54.103Z,94670.28
2018-04-24T12:11:22.483Z,94674.51
2018-04-24T12:13:50.870Z,94672.86
2018-04-24T12:16:19.595Z,94672.06
2018-04-24T12:18:48.017Z,94664.76
2018-04-24T12:21:16.418Z,94663.08
2018-04-24T12:23:45.240Z,94652.01
2018-04-24T12:26:13.666Z,94651.41
2018-04-24T12:28:42.045Z,94656.39
2018-04-24T12:31:10.780Z,94645.55
2018-04-24T12:33:39.181Z,94640.59
2018-04-24T12:36:07.616Z,94647.64
2018-04-24T12:38:36.388Z,94645.30
2018-04-24T12:41:04.794Z,94638.30
2018-04-24T12:43:33.220Z,94631.66
2018-04-24T12:46:01.666Z,94634.83
2018-04-24T12:48:30.083Z,94628.55
2018-04-24T12:50:58.473Z,94622.80
2018-04-24T12:53:26.918Z,94624.86
2018-04-24T12:55:55.365Z,94628.06
2018-04-24T12:58:23.830Z,94616.34
2018-04-24T13:00:52.242Z,94609.76
2018-04-24T13:03:20.708Z,94608.75
2018-04-24T13:05:49.157Z,94605.12
2018-04-24T13:08:17.557Z,94602.03
2018-04-24T13:10:46.003Z,94591.70
2018-04-24T13:13:14.717Z,94597.05
2018-04-24T13:15:43.125Z,94591.44
2018-04-24T13:18:11.565Z,94573.83
2018-04-24T13:20:39.979Z,94595.56
2018-04-24T13:23:08.417Z,94600.01
2018-04-24T13:25:37.841Z,94591.70
2018-04-24T13:28:06.283Z,94594.70
2018-04-24T13:30:35.051Z,94594.72
2018-04-24T13:33:03.555Z,94578.02
2018-04-24T13:35:31.991Z,94576.14
2018-04-24T13:38:00.598Z,94574.44
2018-04-24T13:40:29.013Z,94574.72
2018-04-24T13:42:57.453Z,94574.44
2018-04-24T13:45:25.945Z,94576.48
2018-04-24T13:47:54.383Z,94567.52
2018-04-24T13:50:22.824Z,94566.89
2018-04-24T13:52:51.257Z,94574.91
2018-04-24T13:55:19.728Z,94577.20
2018-04-24T13:57:48.108Z,94569.14
2018-04-24T14:00:16.562Z,94561.92
2018-04-24T14:02:45.784Z,94562.88
2018-04-24T14:05:14.191Z,94569.41
2018-04-24T14:07:42.599Z,94559.96
2018-04-24T14:10:11.031Z,94563.88
2018-04-24T14:12:39.437Z,94551.56
2018-04-24T14:15:07.848Z,94557.13
2018-04-24T14:17:36.306Z,94557.53
2018-04-24T14:20:04.882Z,94555.94
2018-04-24T14:22:33.323Z,94554.44
2018-04-24T14:25:01.735Z,94559.61
2018-04-24T14:27:30.182Z,94552.11
2018-04-24T14:29:58.587Z,94553.51
2018-04-24T14:32:27.020Z,94550.39
2018-04-24T14:34:55.436Z,94555.98
2018-04-24T14:37:23.834Z,94552.54
2018-04-24T14:39:52.283Z,94553.13
2018-04-24T14:42:22.438Z,94530.09
2018-04-24T14:44:50.923Z,94550.36
2018-04-24T14:47:19.601Z,94555.70
2018-04-24T14:49:48.003Z,94553.61
2018-04-24T14:52:16.598Z,94544.09
2018-04-24T14:54:45.080Z,94535.52
2018-04-24T14:57:13.548Z,94538.88
2018-04-24T14:59:42.039Z,94564.84
2018-04-24T15:02:10.662Z,94545.83
2018-04-24T15:04:39.081Z,94543.89
2018-04-24T15:07:07.561Z,94531.14
2018-04-24T15:09:35.933Z,94538.58
2018-04-24T15:12:04.419Z,94538.46
2018-04-24T15:14:32.874Z,94535.47
2018-04-24T15:17:01.471Z,94539.31
2018-04-24T15:19:29.928Z,94539.74
2018-04-24T15:21:58.354Z,94534.28
2018-04-24T15:24:26.809Z,94539.89
2018-04-24T15:26:55.231Z,94535.01
2018-04-24T15:29:23.651Z,94534.42
2018-04-24T15:31:52.104Z,94539.31
2018-04-24T15:34:20.571Z,94532.37
2018-04-24T15:36:48.974Z,94526.38
2018-04-24T15:39:17.437Z,94526.39
2018-04-24T15:41:45.864Z,94536.02
2018-04-24T15:44:14.272Z,94541.61
2018-04-24T15:46:42.722Z,94539.64
2018-04-24T15:49:11.189Z,94543.49
2018-04-24T15:51:39.651Z,94542.73
2018-04-24T15:54:08.213Z,94531.07
2018-04-24T15:56:36.719Z,94535.34
2018-04-24T15:59:05.206Z,94535.08
2018-04-24T16:01:33.699Z,94544.03
2018-04-24T16:04:02.139Z,94528.27
2018-04-24T16:06:30.608Z,94530.97
2018-04-24T16:08:59.000Z,94525.97
2018-04-24T16:11:27.927Z,94531.45
2018-04-24T16:13:56.467Z,94527.05
2018-04-24T16:16:24.883Z,94510.00
2018-04-24T16:18:53.476Z,94525.09
2018-04-24T16:21:21.917Z,94517.91
2018-04-24T16:23:50.328Z,94524.97
2018-04-24T16:26:18.907Z,94521.05
2018-04-24T16:28:47.539Z,94515.02
2018-04-24T16:31:15.995Z,94531.91
2018-04-24T16:33:44.440Z,94533.09
2018-04-24T16:36:12.844Z,94527.67
2018-04-24T16:38:41.310Z,94532.41
2018-04-24T16:41:09.699Z,94542.94
2018-04-24T16:43:38.168Z,94545.18
2018-04-24T16:46:06.742Z,94542.59
2018-04-24T16:48:35.197Z,94557.53
2018-04-24T16:51:03.652Z,94551.56
2018-04-24T16:53:32.085Z,94563.69
2018-04-24T16:56:00.550Z,94564.30
2018-04-24T16:58:28.961Z,94574.34
2018-04-24T17:00:57.411Z,94591.08
2018-04-24T17:03:25.815Z,94601.02
2018-04-24T17:05:54.358Z,94619.00
2018-04-24T17:08:22.796Z,94635.28
2018-04-24T17:10:51.280Z,94634.53
2018-04-24T17:13:19.687Z,94634.58
2018-04-24T17:15:48.111Z,94624.99
2018-04-24T17:18:16.571Z,94615.86
2018-04-24T17:20:44.968Z,94640.93
2018-04-24T17:23:13.499Z,94624.25
2018-04-24T17:25:41.971Z,94637.34
2018-04-24T17:28:10.427Z,94631.53
2018-04-24T17:30:38.929Z,94639.97
2018-04-24T17:33:07.331Z,94641.61
2018-04-24T17:35:35.767Z,94646.61
2018-04-24T17:38:04.206Z,94666.09
2018-04-24T17:40:32.640Z,94659.21
2018-04-24T17:43:01.036Z,94624.11
2018-04-24T17:45:29.471Z,94664.58
2018-04-24T17:47:57.919Z,94670.62
2018-04-24T17:50:26.378Z,94670.30
2018-04-24T17:52:54.857Z,94678.46
2018-04-24T17:55:23.309Z,94683.38
2018-04-24T17:57:51.868Z,94693.83
2018-04-24T18:00:20.269Z,94699.73
2018-04-24T18:02:48.747Z,94693.27
2018-04-24T18:05:17.193Z,94683.66
2018-04-24T18:07:45.600Z,94694.09
2018-04-24T18:10:14.036Z,94714.60
2018-04-24T18:12:42.486Z,94717.59
2018-04-24T18:15:10.964Z,94713.94
2018-04-24T18:17:39.382Z,94717.95
2018-04-24T18:20:07.820Z,94707.74
2018-04-24T18:22:36.279Z,94701.61
2018-04-24T18:25:04.747Z,94707.04
2018-04-24T18:27:33.117Z,94709.84
2018-04-24T18:30:01.556Z,94706.97
2018-04-24T18:32:30.003Z,94712.84
2018-04-24T18:34:58.562Z,94706.94
2018-04-24T18:37:27.003Z,94717.30
2018-04-24T18:39:55.436Z,94715.53
2018-04-24T18:42:23.818Z,94724.69
2018-04-24T18:44:52.340Z,94726.33
2018-04-24T18:47:20.759Z,94734.44
2018-04-24T18:49:49.234Z,94745.67
2018-04-24T18:52:17.660Z,94747.19
2018-04-24T18:54:46.077Z,94753.84
2018-04-24T18:57:14.499Z,94750.61
2018-04-24T18:59:42.949Z,94749.96
2018-04-24T19:02:11.366Z,94758.59
2018-04-24T19:04:39.839Z,94758.91
2018-04-24T19:07:08.307Z,94754.45
2018-04-24T19:09:36.747Z,94743.83
2018-04-24T19:12:05.166Z,94776.33
2018-04-24T19:14:33.595Z,94784.82
2018-04-24T19:17:02.063Z,94770.24
2018-04-24T19:19:30.526Z,94793.62
2018-04-24T19:21:58.953Z,94800.48
2018-04-24T19:24:33.083Z,94806.22
2018-04-24T19:27:01.583Z,94828.84
2018-04-24T19:29:29.999Z,94808.22
2018-04-24T19:32:04.147Z,94812.33
2018-04-24T19:34:32.595Z,94817.44
2018-04-24T19:37:00.980Z,94813.12
2018-04-24T19:39:34.989Z,94810.66
2018-04-24T19:42:03.376Z,94808.49
2018-04-24T19:44:31.807Z,94818.34
2018-04-24T19:47:00.281Z,94821.72
2018-04-24T19:49:34.445Z,94830.79
2018-04-24T19:52:02.838Z,94841.01
2018-04-24T19:54:31.278Z,94847.06
2018-04-24T19:56:59.708Z,94863.11
2018-04-24T19:59:28.130Z,94871.41
2018-04-24T20:01:56.586Z,94883.92
2018-04-24T20:04:25.059Z,94899.34
2018-04-24T20:06:53.428Z,94915.47
2018-04-24T20:09:21.858Z,94924.45
2018-04-24T20:11:50.291Z,94936.96
2018-04-24T20:14:18.768Z,94944.73
2018-04-24T20:16:47.201Z,94916.82
2018-04-24T20:19:15.637Z,94929.55
2018-04-24T20:21:44.092Z,94926.50
2018-04-24T20:24:12.482Z,94910.83
2018-04-24T20:26:40.888Z,94909.00
2018-04-24T20:29:09.305Z,94903.27
2018-04-24T20:31:37.707Z,94906.89
2018-04-24T20:34:06.150Z,94908.87
2018-04-24T20:36:34.603Z,94885.45
2018-04-24T20:39:03.231Z,94903.05
2018-04-24T20:41:31.665Z,94910.89
2018-04-24T20:44:00.052Z,94905.97
2018-04-24T20:46:28.502Z,94907.91
2018-04-24T20:48:56.945Z,94912.20
2018-04-24T20:51:25.348Z,94907.84
2018-04-24T20:53:53.788Z,94904.16
2018-04-24T20:56:22.197Z,94907.98
2018-04-24T20:58:50.682Z,94911.80
2018-04-24T21:01:19.088Z,94908.24
2018-04-24T21:03:47.516Z,94906.00
2018-04-24T21:06:16.025Z,94912.47
2018-04-24T21:08:44.480Z,94915.80
2018-04-24T21:11:12.908Z,94891.57
2018-04-24T21:13:41.330Z,94910.88
2018-04-24T21:16:09.843Z,94905.27
2018-04-24T21:18:38.411Z,94909.70
2018-04-24T21:21:06.848Z,94903.56
2018-04-24T21:23:35.359Z,94905.61
2018-04-24T21:26:03.824Z,94896.05
2018-04-24T21:28:32.263Z,94891.34
2018-04-24T21:31:00.703Z,94878.87
2018-04-24T21:33:29.096Z,94882.95
2018-04-24T21:35:57.556Z,94881.09
2018-04-24T21:38:25.948Z,94863.73
2018-04-24T21:40:54.399Z,94843.30
2018-04-24T21:43:22.789Z,94804.52
2018-04-24T21:45:51.224Z,94826.94
2018-04-24T21:48:19.628Z,94826.84
2018-04-24T21:50:48.025Z,94830.03
2018-04-24T21:53:16.482Z,94828.11
2018-04-24T21:55:44.885Z,94835.59
2018-04-24T21:58:13.357Z,94837.83
2018-04-24T22:00:41.803Z,94838.52
2018-04-24T22:03:10.175Z,94829.07
2018-04-24T22:05:38.672Z,94813.77
2018-04-24T22:08:07.063Z,94825.19
2018-04-24T22:10:35.468Z,94835.86
2018-04-24T22:13:03.908Z,94837.20
2018-04-24T22:15:32.355Z,94839.18
2018-04-24T22:18:00.840Z,94828.45
2018-04-24T22:20:29.292Z,94832.81
2018-04-24T22:22:57.784Z,94833.86
2018-04-24T22:25:26.191Z,94830.05
2018-04-24T22:27:54.627Z,94824.85
2018-04-24T22:30:23.087Z,94821.45
2018-04-24T22:32:51.537Z,94826.70
2018-04-24T22:35:19.918Z,94829.80
2018-04-24T22:37:48.354Z,94828.80
2018-04-24T22:40:16.739Z,94830.63
2018-04-24T22:42:46.110Z,94835.55
2018-04-24T22:45:14.541Z,94838.86
2018-04-24T22:47:43.012Z,94843.61
2018-04-24T22:50:11.431Z,94849.66
2018-04-24T22:52:39.895Z,94846.03
2018-04-24T22:55:08.300Z,94855.74
2018-04-24T22:57:36.760Z,94862.71
2018-04-24T23:00:05.167Z,94866.69
2018-04-24T23:02:33.328Z,94868.78
2018-04-24T23:05:01.755Z,94874.17
2018-04-24T23:07:30.170Z,94885.52
2018-04-24T23:09:58.075Z,94887.69
2018-04-24T23:12:38.100Z,94873.64
2018-04-24T23:15:24.487Z,94867.45
2018-04-24T23:18:10.727Z,94844.20
2018-04-24T23:20:44.573Z,94850.78
2018-04-24T23:23:13.047Z,94852.60
2018-04-24T23:25:41.498Z,94850.09
2018-04-24T23:28:09.976Z,94843.94
2018-04-24T23:30:38.413Z,94847.11
2018-04-24T23:33:06.860Z,94850.77
2018-04-24T23:35:35.310Z,94853.27
2018-04-24T23:38:03.746Z,94851.16
2018-04-24T23:40:32.203Z,94856.80
2018-04-24T23:43:00.656Z,94859.67
2018-04-24T23:45:29.155Z,94861.80
2018-04-24T23:47:57.639Z,94842.45
2018-04-24T23:50:26.162Z,94867.19
2018-04-24T23:52:54.555Z,94864.96
2018-04-24T23:55:22.976Z,94868.50
2018-04-24T23:57:51.440Z,94869.02
